createdAt,value
2023-01-29T00:03:46.655Z,-0.74
2023-01-29T00:08:49.091Z,-0.77
2023-01-29T00:13:52.698Z,-0.56
2023-01-29T00:18:55.316Z,-0.57
2023-01-29T00:23:58.173Z,-0.63
2023-01-29T00:29:03.639Z,-0.71
2023-01-29T00:34:06.128Z,-0.92
2023-01-29T00:39:11.155Z,-1.02
2023-01-29T00:44:32.582Z,-1.18
2023-01-29T00:49:39.215Z,-1.04
2023-01-29T00:54:41.671Z,-1.09
2023-01-29T00:59:44.541Z,-1.06
2023-01-29T01:04:47.080Z,-1.06
2023-01-29T01:10:07.879Z,-1.05
2023-01-29T01:15:10.844Z,-1.08
2023-01-29T01:20:14.318Z,-1.18
2023-01-29T01:25:19.129Z,-1.20
2023-01-29T01:30:22.293Z,-1.08
2023-01-29T01:35:24.783Z,-1.19
2023-01-29T01:40:27.569Z,-1.13
2023-01-29T01:45:33.342Z,-0.99
2023-01-29T01:51:03.537Z,-0.96
2023-01-29T01:56:10.287Z,-1.17
2023-01-29T02:01:13.724Z,-1.13
2023-01-29T02:06:34.817Z,-1.41
2023-01-29T02:11:38.767Z,-1.29
2023-01-29T02:16:41.288Z,-1.34
2023-01-29T02:22:28.619Z,-1.65
2023-01-29T02:27:44.890Z,-1.45
2023-01-29T02:33:02.673Z,-1.57
2023-01-29T02:38:29.386Z,-1.55
2023-01-29T02:43:48.148Z,-1.50
2023-01-29T02:49:00.514Z,-1.44
2023-01-29T02:54:20.884Z,-1.42
2023-01-29T02:59:34.606Z,-1.48
2023-01-29T03:04:46.769Z,-1.45
2023-01-29T03:09:53.294Z,-1.54
2023-01-29T03:15:14.525Z,-1.53
2023-01-29T03:20:29.756Z,-1.26
2023-01-29T03:25:53.824Z,-1.41
2023-01-29T03:31:21.118Z,-1.23
2023-01-29T03:36:45.673Z,-1.25
2023-01-29T03:42:11.964Z,-1.20
2023-01-29T03:47:27.418Z,-1.28
2023-01-29T03:53:02.238Z,-1.24
2023-01-29T03:58:35.342Z,-1.22
2023-01-29T04:03:42.488Z,-1.00
2023-01-29T04:08:56.323Z,-1.04
2023-01-29T04:13:59.894Z,-1.33
2023-01-29T04:19:03.077Z,-1.28
2023-01-29T04:24:13.872Z,-1.22
2023-01-29T04:29:31.073Z,-1.34
2023-01-29T04:35:23.134Z,-1.30
2023-01-29T04:40:51.286Z,-1.24
2023-01-29T04:46:41.146Z,-1.23
2023-01-29T04:51:55.459Z,-1.27
2023-01-29T04:57:04.673Z,-1.27
2023-01-29T05:02:10.904Z,-1.25
2023-01-29T05:07:16.393Z,-1.07
2023-01-29T05:12:19.448Z,-0.94
2023-01-29T05:17:22.117Z,-1.02
2023-01-29T05:22:25.020Z,-1.16
2023-01-29T05:27:53.515Z,-1.33
2023-01-29T05:32:55.939Z,-1.08
2023-01-29T05:37:58.953Z,-1.07
2023-01-29T05:43:01.706Z,-1.29
2023-01-29T05:48:04.373Z,-1.46
2023-01-29T05:53:06.775Z,-1.15
2023-01-29T05:58:09.235Z,-1.22
2023-01-29T06:03:11.742Z,-0.82
2023-01-29T06:08:14.248Z,-0.72
2023-01-29T06:13:16.699Z,-0.59
2023-01-29T06:18:19.376Z,-0.43
2023-01-29T06:23:21.827Z,-0.38
2023-01-29T06:28:24.469Z,-0.28
2023-01-29T06:33:26.988Z,-0.29
2023-01-29T06:38:30.263Z,-0.36
2023-01-29T06:43:32.756Z,-0.31
2023-01-29T06:48:35.779Z,-0.25
2023-01-29T06:53:39.668Z,-0.07
2023-01-29T06:58:43.808Z,0.31
2023-01-29T07:03:51.087Z,0.55
2023-01-29T07:08:53.556Z,1.06
2023-01-29T07:13:55.985Z,2.26
2023-01-29T07:18:58.537Z,1.76
2023-01-29T07:24:01.086Z,1.40
2023-01-29T07:29:05.446Z,1.21
2023-01-29T07:34:07.917Z,1.40
2023-01-29T07:39:10.372Z,1.40
2023-01-29T07:44:12.912Z,1.20
2023-01-29T07:49:15.975Z,1.65
2023-01-29T07:54:18.422Z,2.11
2023-01-29T07:59:20.889Z,2.13
2023-01-29T08:04:23.408Z,1.96
2023-01-29T08:09:25.873Z,2.02
2023-01-29T08:14:28.437Z,2.09
2023-01-29T08:19:30.962Z,2.04
2023-01-29T08:24:47.669Z,1.82
2023-01-29T08:29:56.501Z,1.98
2023-01-29T08:34:59.773Z,2.05
2023-01-29T08:40:09.797Z,2.00
2023-01-29T08:45:12.389Z,2.24
2023-01-29T08:50:16.232Z,2.44
2023-01-29T08:55:20.260Z,2.39
2023-01-29T09:00:23.847Z,2.37
2023-01-29T09:05:26.389Z,2.21
2023-01-29T09:10:28.899Z,2.15
2023-01-29T09:15:31.448Z,2.06
2023-01-29T09:20:38.151Z,2.03
2023-01-29T09:25:44.465Z,2.23
2023-01-29T09:30:47.734Z,2.34
2023-01-29T09:36:01.113Z,2.39
2023-01-29T09:41:27.708Z,2.54
2023-01-29T09:46:30.130Z,2.41
2023-01-29T09:52:01.689Z,2.50
2023-01-29T09:57:16.035Z,2.35
2023-01-29T10:03:00.084Z,2.31
2023-01-29T10:08:17.143Z,2.15
2023-01-29T10:13:19.467Z,2.19
2023-01-29T10:18:41.923Z,2.31
2023-01-29T10:23:51.200Z,2.47
2023-01-29T10:28:57.688Z,2.82
2023-01-29T10:34:27.577Z,2.69
2023-01-29T10:39:32.885Z,3.30
2023-01-29T10:44:38.311Z,3.87
2023-01-29T10:49:46.502Z,3.13
2023-01-29T10:55:06.864Z,3.31
2023-01-29T11:00:24.244Z,3.25
2023-01-29T11:05:36.670Z,3.24
2023-01-29T11:10:46.482Z,3.03
2023-01-29T11:15:53.190Z,3.01
2023-01-29T11:21:05.008Z,3.38
2023-01-29T11:26:13.647Z,3.45
2023-01-29T11:31:18.573Z,3.29
2023-01-29T11:36:39.043Z,3.15
2023-01-29T11:42:13.534Z,3.26
2023-01-29T11:47:16.619Z,3.00
2023-01-29T11:52:25.357Z,3.00
2023-01-29T11:57:31.668Z,3.08
2023-01-29T12:02:39.023Z,3.31
2023-01-29T12:07:52.147Z,3.76
2023-01-29T12:13:21.637Z,3.76
2023-01-29T12:18:35.748Z,3.45
2023-01-29T12:24:07.328Z,3.44
2023-01-29T12:29:18.560Z,3.35
2023-01-29T12:34:35.028Z,3.25
2023-01-29T12:39:37.880Z,3.14
2023-01-29T12:44:49.588Z,3.01
2023-01-29T12:50:00.665Z,2.86
2023-01-29T12:55:24.675Z,2.80
2023-01-29T13:00:43.933Z,2.78
2023-01-29T13:06:03.542Z,2.77
2023-01-29T13:11:20.071Z,2.73
2023-01-29T13:16:31.301Z,2.72
2023-01-29T13:21:44.364Z,2.67
2023-01-29T13:26:50.707Z,2.45
2023-01-29T13:31:55.821Z,2.37
2023-01-29T13:37:01.953Z,2.28
2023-01-29T13:42:26.612Z,2.32
2023-01-29T13:47:33.988Z,2.31
2023-01-29T13:53:02.441Z,2.30
2023-01-29T13:58:27.787Z,2.26
2023-01-29T14:03:45.037Z,2.27
2023-01-29T14:08:52.650Z,2.34
2023-01-29T14:13:55.147Z,2.21
2023-01-29T14:19:01.016Z,2.28
2023-01-29T14:24:17.686Z,2.00
2023-01-29T14:29:34.344Z,1.93
2023-01-29T14:34:49.395Z,1.71
2023-01-29T14:39:59.154Z,1.58
2023-01-29T14:45:08.273Z,1.56
2023-01-29T14:50:19.540Z,1.42
2023-01-29T14:55:57.097Z,1.36
2023-01-29T15:01:00.477Z,1.26
2023-01-29T15:06:05.226Z,1.11
2023-01-29T15:11:34.130Z,1.13
2023-01-29T15:17:17.617Z,0.98
2023-01-29T15:22:29.343Z,0.78
2023-01-29T15:27:32.327Z,0.74
2023-01-29T15:32:37.860Z,0.65
2023-01-29T15:37:40.471Z,0.54
2023-01-29T15:42:48.842Z,0.37
2023-01-29T15:47:53.068Z,0.27
2023-01-29T15:53:00.474Z,0.09
2023-01-29T15:58:03.000Z,-0.10
2023-01-29T16:03:18.424Z,-0.34
2023-01-29T16:08:26.495Z,-0.39
2023-01-29T16:13:32.099Z,-0.50
2023-01-29T16:18:39.512Z,-0.64
2023-01-29T16:23:51.737Z,-0.67
2023-01-29T16:28:55.522Z,-0.78
2023-01-29T16:33:59.701Z,-0.89
2023-01-29T16:39:05.857Z,-0.88
2023-01-29T16:44:17.151Z,-0.77
2023-01-29T16:49:28.894Z,-0.92
2023-01-29T16:54:31.416Z,-1.07
2023-01-29T16:59:40.165Z,-1.07
2023-01-29T17:04:43.950Z,-1.28
2023-01-29T17:09:53.915Z,-1.30
2023-01-29T17:15:00.559Z,-1.38
2023-01-29T17:20:23.713Z,-1.51
2023-01-29T17:25:28.676Z,-1.72
2023-01-29T17:30:37.593Z,-2.01
2023-01-29T17:35:42.525Z,-2.00
2023-01-29T17:40:54.133Z,-1.98
2023-01-29T17:45:56.868Z,-2.11
2023-01-29T17:51:03.032Z,-2.20
2023-01-29T17:56:05.552Z,-2.33
2023-01-29T18:01:07.914Z,-2.45
2023-01-29T18:06:20.547Z,-2.47
2023-01-29T18:11:23.208Z,-2.58
2023-01-29T18:16:26.300Z,-2.69
2023-01-29T18:21:28.790Z,-2.63
2023-01-29T18:26:32.311Z,-2.72
2023-01-29T18:31:34.912Z,-2.77
2023-01-29T18:36:37.489Z,-2.62
2023-01-29T18:41:41.123Z,-2.80
2023-01-29T18:46:43.733Z,-2.78
2023-01-29T18:51:46.275Z,-2.80
2023-01-29T18:57:13.248Z,-2.70
2023-01-29T19:02:17.714Z,-2.51
2023-01-29T19:07:20.324Z,-2.49
2023-01-29T19:12:23.407Z,-2.35
2023-01-29T19:17:26.354Z,-2.38
2023-01-29T19:22:29.794Z,-2.40
2023-01-29T19:27:33.646Z,-2.54
2023-01-29T19:32:36.217Z,-2.60
2023-01-29T19:37:38.692Z,-2.58
2023-01-29T19:42:41.532Z,-2.49
2023-01-29T19:47:44.789Z,-2.61
2023-01-29T19:52:51.533Z,-2.50
2023-01-29T19:57:54.791Z,-2.57
2023-01-29T20:02:57.231Z,-2.49
2023-01-29T20:07:59.745Z,-2.26
2023-01-29T20:13:06.269Z,-2.30
2023-01-29T20:18:12.256Z,-2.17
2023-01-29T20:23:22.285Z,-2.10
